sensor_id;sensor_type;location;lat;lon;timestamp;temperature;humidity
19138;DHT22;68178;52.188;5.598;2023-08-31T00:01:35;13.10;99.90
19138;DHT22;68178;52.188;5.598;2023-08-31T00:04:01;13.10;99.90
19138;DHT22;68178;52.188;5.598;2023-08-31T00:06:26;13.10;99.90
19138;DHT22;68178;52.188;5.598;2023-08-31T00:08:52;13.10;99.90
19138;DHT22;68178;52.188;5.598;2023-08-31T00:11:17;13.10;99.90
19138;DHT22;68178;52.188;5.598;2023-08-31T00:13:43;13.10;99.90
19138;DHT22;68178;52.188;5.598;2023-08-31T00:16:09;13.00;99.90
19138;DHT22;68178;52.188;5.598;2023-08-31T00:18:35;13.00;99.90
19138;DHT22;68178;52.188;5.598;2023-08-31T00:21:02;13.10;99.90
19138;DHT22;68178;52.188;5.598;2023-08-31T00:23:28;13.10;99.90
19138;DHT22;68178;52.188;5.598;2023-08-31T00:25:54;13.20;99.90
19138;DHT22;68178;52.188;5.598;2023-08-31T00:28:21;13.10;99.90
19138;DHT22;68178;52.188;5.598;2023-08-31T00:30:46;13.10;99.90
19138;DHT22;68178;52.188;5.598;2023-08-31T00:33:15;13.00;99.90
19138;DHT22;68178;52.188;5.598;2023-08-31T00:35:41;13.10;99.90
19138;DHT22;68178;52.188;5.598;2023-08-31T00:38:14;13.00;99.90
19138;DHT22;68178;52.188;5.598;2023-08-31T00:40:40;13.10;99.90
19138;DHT22;68178;52.188;5.598;2023-08-31T00:43:11;13.00;99.90
19138;DHT22;68178;52.188;5.598;2023-08-31T00:45:37;13.00;99.90
19138;DHT22;68178;52.188;5.598;2023-08-31T00:48:04;13.00;99.90
19138;DHT22;68178;52.188;5.598;2023-08-31T00:50:30;13.10;99.90
19138;DHT22;68178;52.188;5.598;2023-08-31T00:52:56;13.00;99.90
19138;DHT22;68178;52.188;5.598;2023-08-31T00:55:22;13.10;99.90
19138;DHT22;68178;52.188;5.598;2023-08-31T00:57:48;13.20;99.90
19138;DHT22;68178;52.188;5.598;2023-08-31T01:00:14;13.30;99.90
19138;DHT22;68178;52.188;5.598;2023-08-31T01:02:44;13.30;99.90
19138;DHT22;68178;52.188;5.598;2023-08-31T01:05:25;13.30;99.90
19138;DHT22;68178;52.188;5.598;2023-08-31T01:08:08;13.40;99.90
19138;DHT22;68178;52.188;5.598;2023-08-31T01:13:24;13.50;99.90
19138;DHT22;68178;52.188;5.598;2023-08-31T01:15:56;13.40;99.90
19138;DHT22;68178;52.188;5.598;2023-08-31T01:18:24;13.50;99.90
19138;DHT22;68178;52.188;5.598;2023-08-31T01:23:54;13.30;99.90
19138;DHT22;68178;52.188;5.598;2023-08-31T01:26:21;13.40;99.90
19138;DHT22;68178;52.188;5.598;2023-08-31T01:28:48;13.30;99.90
19138;DHT22;68178;52.188;5.598;2023-08-31T01:31:15;13.30;99.90
19138;DHT22;68178;52.188;5.598;2023-08-31T01:33:41;13.50;99.90
19138;DHT22;68178;52.188;5.598;2023-08-31T01:36:16;13.40;99.90
19138;DHT22;68178;52.188;5.598;2023-08-31T01:38:46;13.50;99.90
19138;DHT22;68178;52.188;5.598;2023-08-31T01:41:17;13.50;99.90
19138;DHT22;68178;52.188;5.598;2023-08-31T01:43:46;13.60;99.90
19138;DHT22;68178;52.188;5.598;2023-08-31T01:46:12;13.50;99.90
19138;DHT22;68178;52.188;5.598;2023-08-31T01:48:39;13.60;99.90
19138;DHT22;68178;52.188;5.598;2023-08-31T01:51:06;13.60;99.90
19138;DHT22;68178;52.188;5.598;2023-08-31T01:53:32;13.60;99.90
19138;DHT22;68178;52.188;5.598;2023-08-31T01:55:58;13.70;99.90
19138;DHT22;68178;52.188;5.598;2023-08-31T01:58:23;13.60;99.90
19138;DHT22;68178;52.188;5.598;2023-08-31T02:00:49;13.60;99.90
19138;DHT22;68178;52.188;5.598;2023-08-31T02:03:14;13.60;99.90
19138;DHT22;68178;52.188;5.598;2023-08-31T02:05:40;13.80;99.90
19138;DHT22;68178;52.188;5.598;2023-08-31T02:08:05;13.70;99.90
19138;DHT22;68178;52.188;5.598;2023-08-31T02:10:31;13.60;99.90
19138;DHT22;68178;52.188;5.598;2023-08-31T02:12:57;13.60;99.90
19138;DHT22;68178;52.188;5.598;2023-08-31T02:15:22;13.60;99.90
19138;DHT22;68178;52.188;5.598;2023-08-31T02:17:48;13.60;99.90
19138;DHT22;68178;52.188;5.598;2023-08-31T02:20:13;13.60;99.90
19138;DHT22;68178;52.188;5.598;2023-08-31T02:22:39;13.60;99.90
19138;DHT22;68178;52.188;5.598;2023-08-31T02:25:05;13.80;99.90
19138;DHT22;68178;52.188;5.598;2023-08-31T02:27:31;13.60;99.90
19138;DHT22;68178;52.188;5.598;2023-08-31T02:29:57;13.50;99.90
19138;DHT22;68178;52.188;5.598;2023-08-31T02:32:23;13.40;99.90
19138;DHT22;68178;52.188;5.598;2023-08-31T02:34:49;13.50;99.90
19138;DHT22;68178;52.188;5.598;2023-08-31T02:37:15;13.50;99.90
19138;DHT22;68178;52.188;5.598;2023-08-31T02:39:41;13.50;99.90
19138;DHT22;68178;52.188;5.598;2023-08-31T02:42:07;13.50;99.90
19138;DHT22;68178;52.188;5.598;2023-08-31T02:44:33;13.50;99.90
19138;DHT22;68178;52.188;5.598;2023-08-31T02:46:58;13.50;99.90
19138;DHT22;68178;52.188;5.598;2023-08-31T02:49:24;13.60;99.90
19138;DHT22;68178;52.188;5.598;2023-08-31T02:51:50;13.60;99.90
19138;DHT22;68178;52.188;5.598;2023-08-31T02:54:15;13.60;99.90
19138;DHT22;68178;52.188;5.598;2023-08-31T02:56:41;13.60;99.90
19138;DHT22;68178;52.188;5.598;2023-08-31T02:59:07;13.60;99.90
19138;DHT22;68178;52.188;5.598;2023-08-31T03:01:33;13.50;99.90
19138;DHT22;68178;52.188;5.598;2023-08-31T03:03:58;13.50;99.90
19138;DHT22;68178;52.188;5.598;2023-08-31T03:06:25;13.60;99.90
19138;DHT22;68178;52.188;5.598;2023-08-31T03:08:50;13.60;99.90
19138;DHT22;68178;52.188;5.598;2023-08-31T03:11:16;13.60;99.90
19138;DHT22;68178;52.188;5.598;2023-08-31T03:13:42;13.60;99.90
19138;DHT22;68178;52.188;5.598;2023-08-31T03:16:07;13.60;99.90
19138;DHT22;68178;52.188;5.598;2023-08-31T03:18:33;13.60;99.90
19138;DHT22;68178;52.188;5.598;2023-08-31T03:20:59;13.60;99.90
19138;DHT22;68178;52.188;5.598;2023-08-31T03:23:25;13.50;99.90
19138;DHT22;68178;52.188;5.598;2023-08-31T03:25:50;13.60;99.90
19138;DHT22;68178;52.188;5.598;2023-08-31T03:28:16;13.50;99.90
19138;DHT22;68178;52.188;5.598;2023-08-31T03:30:42;13.50;99.90
19138;DHT22;68178;52.188;5.598;2023-08-31T03:33:10;13.50;99.90
19138;DHT22;68178;52.188;5.598;2023-08-31T03:35:36;13.60;99.90
19138;DHT22;68178;52.188;5.598;2023-08-31T03:38:02;13.60;99.90
19138;DHT22;68178;52.188;5.598;2023-08-31T03:40:27;13.50;99.90
19138;DHT22;68178;52.188;5.598;2023-08-31T03:42:53;13.50;99.90
19138;DHT22;68178;52.188;5.598;2023-08-31T03:45:19;13.50;99.90
19138;DHT22;68178;52.188;5.598;2023-08-31T03:47:45;13.50;99.90
19138;DHT22;68178;52.188;5.598;2023-08-31T03:50:11;13.60;99.90
19138;DHT22;68178;52.188;5.598;2023-08-31T03:52:36;13.60;99.90
19138;DHT22;68178;52.188;5.598;2023-08-31T03:55:02;13.60;99.90
19138;DHT22;68178;52.188;5.598;2023-08-31T03:57:28;13.80;99.90
19138;DHT22;68178;52.188;5.598;2023-08-31T03:59:53;13.70;99.90
19138;DHT22;68178;52.188;5.598;2023-08-31T04:02:19;13.70;99.90
19138;DHT22;68178;52.188;5.598;2023-08-31T04:04:44;13.80;99.90
19138;DHT22;68178;52.188;5.598;2023-08-31T04:07:10;13.70;99.90
19138;DHT22;68178;52.188;5.598;2023-08-31T04:09:36;13.60;99.90
19138;DHT22;68178;52.188;5.598;2023-08-31T04:12:02;13.60;99.90
19138;DHT22;68178;52.188;5.598;2023-08-31T04:14:28;13.70;99.90
19138;DHT22;68178;52.188;5.598;2023-08-31T04:16:55;13.60;99.90
19138;DHT22;68178;52.188;5.598;2023-08-31T04:19:21;13.70;99.90
19138;DHT22;68178;52.188;5.598;2023-08-31T04:21:47;13.60;99.90
19138;DHT22;68178;52.188;5.598;2023-08-31T04:24:13;13.70;99.90
19138;DHT22;68178;52.188;5.598;2023-08-31T04:26:39;13.60;99.90
19138;DHT22;68178;52.188;5.598;2023-08-31T04:29:04;13.50;99.90
19138;DHT22;68178;52.188;5.598;2023-08-31T04:31:32;13.40;99.90
19138;DHT22;68178;52.188;5.598;2023-08-31T04:33:58;13.60;99.90
19138;DHT22;68178;52.188;5.598;2023-08-31T04:36:24;13.60;99.90
19138;DHT22;68178;52.188;5.598;2023-08-31T04:38:51;13.60;99.90
19138;DHT22;68178;52.188;5.598;2023-08-31T04:41:20;13.50;99.90
19138;DHT22;68178;52.188;5.598;2023-08-31T04:43:46;13.60;99.90
19138;DHT22;68178;52.188;5.598;2023-08-31T04:46:15;13.70;99.90
19138;DHT22;68178;52.188;5.598;2023-08-31T04:48:41;13.60;99.90
19138;DHT22;68178;52.188;5.598;2023-08-31T04:51:06;13.70;99.90
19138;DHT22;68178;52.188;5.598;2023-08-31T04:53:32;13.70;99.90
19138;DHT22;68178;52.188;5.598;2023-08-31T04:55:58;13.70;99.90
19138;DHT22;68178;52.188;5.598;2023-08-31T04:58:23;13.90;99.90
19138;DHT22;68178;52.188;5.598;2023-08-31T05:00:51;13.70;99.90
19138;DHT22;68178;52.188;5.598;2023-08-31T05:03:17;13.90;99.90
19138;DHT22;68178;52.188;5.598;2023-08-31T05:05:42;13.90;99.90
19138;DHT22;68178;52.188;5.598;2023-08-31T05:08:09;13.90;99.90
19138;DHT22;68178;52.188;5.598;2023-08-31T05:10:34;13.90;99.90
19138;DHT22;68178;52.188;5.598;2023-08-31T05:13:00;13.90;99.90
19138;DHT22;68178;52.188;5.598;2023-08-31T05:15:26;13.80;99.90
19138;DHT22;68178;52.188;5.598;2023-08-31T05:17:55;14.00;99.90
19138;DHT22;68178;52.188;5.598;2023-08-31T05:20:21;13.90;99.90
19138;DHT22;68178;52.188;5.598;2023-08-31T05:22:48;13.80;99.90
19138;DHT22;68178;52.188;5.598;2023-08-31T05:25:14;13.80;99.90
19138;DHT22;68178;52.188;5.598;2023-08-31T05:27:40;13.90;99.90
19138;DHT22;68178;52.188;5.598;2023-08-31T05:30:06;13.70;99.90
19138;DHT22;68178;52.188;5.598;2023-08-31T05:32:31;13.70;99.90
19138;DHT22;68178;52.188;5.598;2023-08-31T05:34:57;13.70;99.90
19138;DHT22;68178;52.188;5.598;2023-08-31T05:37:24;13.80;99.90
19138;DHT22;68178;52.188;5.598;2023-08-31T05:39:50;13.90;99.90
19138;DHT22;68178;52.188;5.598;2023-08-31T05:42:16;14.00;99.90
19138;DHT22;68178;52.188;5.598;2023-08-31T05:44:42;14.00;99.90
19138;DHT22;68178;52.188;5.598;2023-08-31T05:47:07;14.20;99.90
19138;DHT22;68178;52.188;5.598;2023-08-31T05:49:34;14.30;99.90
19138;DHT22;68178;52.188;5.598;2023-08-31T05:52:00;14.30;99.90
19138;DHT22;68178;52.188;5.598;2023-08-31T05:54:27;14.20;99.90
19138;DHT22;68178;52.188;5.598;2023-08-31T05:56:53;14.40;99.90
19138;DHT22;68178;52.188;5.598;2023-08-31T05:59:18;14.30;99.90
19138;DHT22;68178;52.188;5.598;2023-08-31T06:01:44;14.30;99.90
19138;DHT22;68178;52.188;5.598;2023-08-31T06:04:11;14.40;99.90
19138;DHT22;68178;52.188;5.598;2023-08-31T06:06:36;14.30;99.90
19138;DHT22;68178;52.188;5.598;2023-08-31T06:09:02;14.10;99.90
19138;DHT22;68178;52.188;5.598;2023-08-31T06:11:28;14.30;99.90
19138;DHT22;68178;52.188;5.598;2023-08-31T06:13:54;14.40;99.90
19138;DHT22;68178;52.188;5.598;2023-08-31T06:16:19;14.50;99.90
19138;DHT22;68178;52.188;5.598;2023-08-31T06:18:45;14.50;99.90
19138;DHT22;68178;52.188;5.598;2023-08-31T06:21:10;14.60;99.90
19138;DHT22;68178;52.188;5.598;2023-08-31T06:23:36;14.70;99.90
19138;DHT22;68178;52.188;5.598;2023-08-31T06:26:02;14.40;99.90
19138;DHT22;68178;52.188;5.598;2023-08-31T06:28:28;14.40;99.90
19138;DHT22;68178;52.188;5.598;2023-08-31T06:30:54;14.30;99.90
19138;DHT22;68178;52.188;5.598;2023-08-31T06:33:20;14.30;99.90
19138;DHT22;68178;52.188;5.598;2023-08-31T06:35:48;14.20;99.90
19138;DHT22;68178;52.188;5.598;2023-08-31T06:38:17;14.30;99.90
19138;DHT22;68178;52.188;5.598;2023-08-31T06:40:42;14.30;99.90
19138;DHT22;68178;52.188;5.598;2023-08-31T06:43:11;14.40;99.90
19138;DHT22;68178;52.188;5.598;2023-08-31T06:45:36;14.30;99.90
19138;DHT22;68178;52.188;5.598;2023-08-31T06:48:02;14.20;99.90
19138;DHT22;68178;52.188;5.598;2023-08-31T06:50:28;14.20;99.90
19138;DHT22;68178;52.188;5.598;2023-08-31T06:52:54;14.20;99.90
19138;DHT22;68178;52.188;5.598;2023-08-31T06:55:19;14.30;99.90
19138;DHT22;68178;52.188;5.598;2023-08-31T06:57:45;14.40;99.90
19138;DHT22;68178;52.188;5.598;2023-08-31T07:00:11;14.40;99.90
19138;DHT22;68178;52.188;5.598;2023-08-31T07:02:39;14.50;99.90
19138;DHT22;68178;52.188;5.598;2023-08-31T07:05:06;14.60;99.90
19138;DHT22;68178;52.188;5.598;2023-08-31T07:07:31;14.60;99.90
19138;DHT22;68178;52.188;5.598;2023-08-31T07:09:57;14.70;99.90
19138;DHT22;68178;52.188;5.598;2023-08-31T07:12:23;14.70;99.90
19138;DHT22;68178;52.188;5.598;2023-08-31T07:14:48;14.90;99.90
19138;DHT22;68178;52.188;5.598;2023-08-31T07:17:18;15.00;99.90
19138;DHT22;68178;52.188;5.598;2023-08-31T07:19:43;15.20;99.90
19138;DHT22;68178;52.188;5.598;2023-08-31T07:22:09;15.40;99.90
19138;DHT22;68178;52.188;5.598;2023-08-31T07:24:35;15.40;99.90
19138;DHT22;68178;52.188;5.598;2023-08-31T07:27:02;15.40;99.90
19138;DHT22;68178;52.188;5.598;2023-08-31T07:29:28;15.30;99.90
19138;DHT22;68178;52.188;5.598;2023-08-31T07:31:53;15.30;99.90
19138;DHT22;68178;52.188;5.598;2023-08-31T07:34:19;15.30;99.90
19138;DHT22;68178;52.188;5.598;2023-08-31T07:36:46;15.30;99.90
19138;DHT22;68178;52.188;5.598;2023-08-31T07:39:12;15.50;99.90
19138;DHT22;68178;52.188;5.598;2023-08-31T07:41:37;15.50;99.90
19138;DHT22;68178;52.188;5.598;2023-08-31T07:44:04;15.40;99.90
19138;DHT22;68178;52.188;5.598;2023-08-31T07:46:30;15.20;99.90
19138;DHT22;68178;52.188;5.598;2023-08-31T07:48:56;15.10;99.90
19138;DHT22;68178;52.188;5.598;2023-08-31T07:51:21;15.10;99.90
19138;DHT22;68178;52.188;5.598;2023-08-31T07:53:49;15.10;99.90
19138;DHT22;68178;52.188;5.598;2023-08-31T07:56:14;15.30;99.90
19138;DHT22;68178;52.188;5.598;2023-08-31T07:58:40;15.50;99.90
19138;DHT22;68178;52.188;5.598;2023-08-31T08:01:05;15.70;99.90
19138;DHT22;68178;52.188;5.598;2023-08-31T08:03:31;15.60;99.90
19138;DHT22;68178;52.188;5.598;2023-08-31T08:05:56;15.50;99.90
19138;DHT22;68178;52.188;5.598;2023-08-31T08:08:22;15.60;99.90
19138;DHT22;68178;52.188;5.598;2023-08-31T08:10:52;15.80;99.90
19138;DHT22;68178;52.188;5.598;2023-08-31T08:13:18;16.00;99.90
19138;DHT22;68178;52.188;5.598;2023-08-31T08:15:45;16.10;99.90
19138;DHT22;68178;52.188;5.598;2023-08-31T08:18:10;16.30;99.90
19138;DHT22;68178;52.188;5.598;2023-08-31T08:20:36;16.50;99.90
19138;DHT22;68178;52.188;5.598;2023-08-31T08:23:02;16.70;99.90
19138;DHT22;68178;52.188;5.598;2023-08-31T08:25:27;16.80;99.90
19138;DHT22;68178;52.188;5.598;2023-08-31T08:27:53;16.70;99.90
19138;DHT22;68178;52.188;5.598;2023-08-31T08:30:19;16.60;99.90
19138;DHT22;68178;52.188;5.598;2023-08-31T08:32:45;16.50;99.90
19138;DHT22;68178;52.188;5.598;2023-08-31T08:35:10;16.40;99.90
19138;DHT22;68178;52.188;5.598;2023-08-31T08:37:36;16.30;99.90
19138;DHT22;68178;52.188;5.598;2023-08-31T08:40:02;16.20;99.90
19138;DHT22;68178;52.188;5.598;2023-08-31T08:42:30;16.10;99.90
19138;DHT22;68178;52.188;5.598;2023-08-31T08:44:57;16.10;99.90
19138;DHT22;68178;52.188;5.598;2023-08-31T08:47:24;16.20;99.90
19138;DHT22;68178;52.188;5.598;2023-08-31T08:49:50;16.20;99.90
19138;DHT22;68178;52.188;5.598;2023-08-31T08:52:16;16.30;99.90
19138;DHT22;68178;52.188;5.598;2023-08-31T08:54:43;16.10;99.90
19138;DHT22;68178;52.188;5.598;2023-08-31T08:57:09;16.20;99.90
19138;DHT22;68178;52.188;5.598;2023-08-31T08:59:35;16.40;99.90
19138;DHT22;68178;52.188;5.598;2023-08-31T09:02:00;16.40;99.90
19138;DHT22;68178;52.188;5.598;2023-08-31T09:04:28;16.40;99.90
19138;DHT22;68178;52.188;5.598;2023-08-31T09:06:53;16.50;99.90
19138;DHT22;68178;52.188;5.598;2023-08-31T09:09:19;16.50;99.90
19138;DHT22;68178;52.188;5.598;2023-08-31T09:11:45;16.50;99.90
19138;DHT22;68178;52.188;5.598;2023-08-31T09:14:19;16.80;99.90
19138;DHT22;68178;52.188;5.598;2023-08-31T09:16:51;16.70;99.90
19138;DHT22;68178;52.188;5.598;2023-08-31T09:21:44;16.90;99.90
19138;DHT22;68178;52.188;5.598;2023-08-31T09:24:11;17.10;99.90
19138;DHT22;68178;52.188;5.598;2023-08-31T09:26:39;17.50;99.90
19138;DHT22;68178;52.188;5.598;2023-08-31T09:29:05;17.60;99.90
19138;DHT22;68178;52.188;5.598;2023-08-31T09:31:31;17.60;99.90
19138;DHT22;68178;52.188;5.598;2023-08-31T09:33:57;17.50;99.90
19138;DHT22;68178;52.188;5.598;2023-08-31T09:36:23;17.50;99.90
19138;DHT22;68178;52.188;5.598;2023-08-31T09:38:48;17.40;99.90
19138;DHT22;68178;52.188;5.598;2023-08-31T09:41:14;17.40;99.90
19138;DHT22;68178;52.188;5.598;2023-08-31T09:43:43;17.40;99.90
19138;DHT22;68178;52.188;5.598;2023-08-31T09:46:09;17.40;99.90
19138;DHT22;68178;52.188;5.598;2023-08-31T09:48:37;17.40;99.90
19138;DHT22;68178;52.188;5.598;2023-08-31T09:51:04;17.30;99.90
19138;DHT22;68178;52.188;5.598;2023-08-31T09:53:31;17.10;99.90
19138;DHT22;68178;52.188;5.598;2023-08-31T09:55:57;17.00;99.90
19138;DHT22;68178;52.188;5.598;2023-08-31T09:58:24;17.20;99.90
19138;DHT22;68178;52.188;5.598;2023-08-31T10:00:51;17.50;99.90
19138;DHT22;68178;52.188;5.598;2023-08-31T10:03:17;17.70;99.90
19138;DHT22;68178;52.188;5.598;2023-08-31T10:05:43;17.80;99.90
19138;DHT22;68178;52.188;5.598;2023-08-31T10:08:11;17.70;99.90
19138;DHT22;68178;52.188;5.598;2023-08-31T10:10:38;17.90;99.90
19138;DHT22;68178;52.188;5.598;2023-08-31T10:13:05;18.10;99.90
19138;DHT22;68178;52.188;5.598;2023-08-31T10:15:34;18.10;99.90
19138;DHT22;68178;52.188;5.598;2023-08-31T10:18:01;18.20;99.90
19138;DHT22;68178;52.188;5.598;2023-08-31T10:20:29;18.30;99.90
19138;DHT22;68178;52.188;5.598;2023-08-31T10:23:03;18.40;99.90
19138;DHT22;68178;52.188;5.598;2023-08-31T10:25:59;18.40;99.90
19138;DHT22;68178;52.188;5.598;2023-08-31T10:28:26;18.40;99.90
19138;DHT22;68178;52.188;5.598;2023-08-31T10:31:02;18.50;99.90
19138;DHT22;68178;52.188;5.598;2023-08-31T10:33:40;18.60;99.90
19138;DHT22;68178;52.188;5.598;2023-08-31T10:36:34;18.80;99.90
19138;DHT22;68178;52.188;5.598;2023-08-31T10:39:04;19.10;99.90
19138;DHT22;68178;52.188;5.598;2023-08-31T10:41:34;19.10;99.90
19138;DHT22;68178;52.188;5.598;2023-08-31T10:44:00;19.00;99.90
19138;DHT22;68178;52.188;5.598;2023-08-31T10:46:34;18.90;99.90
19138;DHT22;68178;52.188;5.598;2023-08-31T10:49:12;18.90;99.90
19138;DHT22;68178;52.188;5.598;2023-08-31T10:51:41;19.00;99.90
19138;DHT22;68178;52.188;5.598;2023-08-31T10:56:33;19.50;99.90
19138;DHT22;68178;52.188;5.598;2023-08-31T10:58:59;19.50;99.90
19138;DHT22;68178;52.188;5.598;2023-08-31T11:02:00;19.70;99.90
19138;DHT22;68178;52.188;5.598;2023-08-31T11:04:28;19.80;99.90
19138;DHT22;68178;52.188;5.598;2023-08-31T11:07:16;20.00;99.90
19138;DHT22;68178;52.188;5.598;2023-08-31T11:09:44;20.10;99.90
19138;DHT22;68178;52.188;5.598;2023-08-31T11:12:10;20.00;99.90
19138;DHT22;68178;52.188;5.598;2023-08-31T11:14:36;19.90;99.90
19138;DHT22;68178;52.188;5.598;2023-08-31T11:17:03;19.90;99.90
19138;DHT22;68178;52.188;5.598;2023-08-31T11:19:32;19.80;99.90
19138;DHT22;68178;52.188;5.598;2023-08-31T11:21:59;19.80;99.90
19138;DHT22;68178;52.188;5.598;2023-08-31T11:24:26;19.90;99.90
19138;DHT22;68178;52.188;5.598;2023-08-31T11:26:53;20.10;99.90
19138;DHT22;68178;52.188;5.598;2023-08-31T11:29:18;20.30;99.90
19138;DHT22;68178;52.188;5.598;2023-08-31T11:31:44;20.40;99.90
19138;DHT22;68178;52.188;5.598;2023-08-31T11:34:18;20.30;99.90
19138;DHT22;68178;52.188;5.598;2023-08-31T11:36:45;20.40;99.90
19138;DHT22;68178;52.188;5.598;2023-08-31T11:39:14;20.50;99.90
19138;DHT22;68178;52.188;5.598;2023-08-31T11:41:43;20.80;99.90
19138;DHT22;68178;52.188;5.598;2023-08-31T11:44:13;20.90;99.90
19138;DHT22;68178;52.188;5.598;2023-08-31T11:46:42;21.00;99.90
19138;DHT22;68178;52.188;5.598;2023-08-31T11:49:09;21.20;99.90
19138;DHT22;68178;52.188;5.598;2023-08-31T11:51:35;21.20;99.90
19138;DHT22;68178;52.188;5.598;2023-08-31T11:54:02;21.10;99.90
19138;DHT22;68178;52.188;5.598;2023-08-31T11:56:47;21.00;99.90
19138;DHT22;68178;52.188;5.598;2023-08-31T11:59:17;20.90;99.90
19138;DHT22;68178;52.188;5.598;2023-08-31T12:01:43;20.90;99.90
19138;DHT22;68178;52.188;5.598;2023-08-31T12:04:13;21.10;99.90
19138;DHT22;68178;52.188;5.598;2023-08-31T12:06:40;21.50;99.90
19138;DHT22;68178;52.188;5.598;2023-08-31T12:09:10;21.80;99.90
19138;DHT22;68178;52.188;5.598;2023-08-31T12:11:36;22.00;99.90
19138;DHT22;68178;52.188;5.598;2023-08-31T12:14:03;21.90;99.90
19138;DHT22;68178;52.188;5.598;2023-08-31T12:16:34;21.60;99.90
19138;DHT22;68178;52.188;5.598;2023-08-31T12:19:02;21.70;99.90
19138;DHT22;68178;52.188;5.598;2023-08-31T12:21:30;22.00;99.90
19138;DHT22;68178;52.188;5.598;2023-08-31T12:23:59;22.20;99.90
19138;DHT22;68178;52.188;5.598;2023-08-31T12:26:26;22.30;99.90
19138;DHT22;68178;52.188;5.598;2023-08-31T12:28:52;22.50;99.90
19138;DHT22;68178;52.188;5.598;2023-08-31T12:31:17;22.50;99.90
19138;DHT22;68178;52.188;5.598;2023-08-31T12:33:43;22.10;99.90
19138;DHT22;68178;52.188;5.598;2023-08-31T12:36:08;22.00;99.90
19138;DHT22;68178;52.188;5.598;2023-08-31T12:38:34;22.20;99.90
19138;DHT22;68178;52.188;5.598;2023-08-31T12:40:59;22.40;99.90
19138;DHT22;68178;52.188;5.598;2023-08-31T12:43:27;22.50;99.90
19138;DHT22;68178;52.188;5.598;2023-08-31T12:45:54;22.70;99.90
19138;DHT22;68178;52.188;5.598;2023-08-31T12:48:20;22.70;99.90
19138;DHT22;68178;52.188;5.598;2023-08-31T12:50:45;22.90;99.90
19138;DHT22;68178;52.188;5.598;2023-08-31T12:53:13;22.70;99.90
19138;DHT22;68178;52.188;5.598;2023-08-31T12:55:39;22.90;99.90
19138;DHT22;68178;52.188;5.598;2023-08-31T12:58:05;22.70;99.90
19138;DHT22;68178;52.188;5.598;2023-08-31T13:00:30;22.80;99.90
19138;DHT22;68178;52.188;5.598;2023-08-31T13:02:56;22.80;99.90
19138;DHT22;68178;52.188;5.598;2023-08-31T13:05:21;22.40;99.90
19138;DHT22;68178;52.188;5.598;2023-08-31T13:07:47;22.10;99.90
19138;DHT22;68178;52.188;5.598;2023-08-31T13:10:12;22.00;99.90
19138;DHT22;68178;52.188;5.598;2023-08-31T13:12:38;22.00;99.90
19138;DHT22;68178;52.188;5.598;2023-08-31T13:15:04;21.80;99.90
19138;DHT22;68178;52.188;5.598;2023-08-31T13:17:30;21.70;99.90
19138;DHT22;68178;52.188;5.598;2023-08-31T13:19:58;21.90;99.90
19138;DHT22;68178;52.188;5.598;2023-08-31T13:22:24;22.10;99.90
19138;DHT22;68178;52.188;5.598;2023-08-31T13:24:50;22.40;99.90
19138;DHT22;68178;52.188;5.598;2023-08-31T13:27:16;22.50;99.90
19138;DHT22;68178;52.188;5.598;2023-08-31T13:29:43;22.30;99.90
19138;DHT22;68178;52.188;5.598;2023-08-31T13:32:08;22.20;99.90
19138;DHT22;68178;52.188;5.598;2023-08-31T13:34:34;22.10;99.90
19138;DHT22;68178;52.188;5.598;2023-08-31T13:37:00;22.30;99.90
19138;DHT22;68178;52.188;5.598;2023-08-31T13:39:26;22.30;99.90
19138;DHT22;68178;52.188;5.598;2023-08-31T13:41:52;22.20;99.90
19138;DHT22;68178;52.188;5.598;2023-08-31T13:44:19;22.00;99.90
19138;DHT22;68178;52.188;5.598;2023-08-31T13:46:45;22.20;99.90
19138;DHT22;68178;52.188;5.598;2023-08-31T13:49:11;22.20;99.90
19138;DHT22;68178;52.188;5.598;2023-08-31T13:51:37;22.40;99.90
19138;DHT22;68178;52.188;5.598;2023-08-31T13:54:03;22.30;99.90
19138;DHT22;68178;52.188;5.598;2023-08-31T13:56:32;22.30;99.90
19138;DHT22;68178;52.188;5.598;2023-08-31T13:58:58;22.40;99.90
19138;DHT22;68178;52.188;5.598;2023-08-31T14:01:24;22.50;99.90
19138;DHT22;68178;52.188;5.598;2023-08-31T14:03:50;22.60;99.90
19138;DHT22;68178;52.188;5.598;2023-08-31T14:06:16;22.70;99.90
19138;DHT22;68178;52.188;5.598;2023-08-31T14:08:41;22.60;99.90
19138;DHT22;68178;52.188;5.598;2023-08-31T14:11:07;22.80;99.90
19138;DHT22;68178;52.188;5.598;2023-08-31T14:13:33;22.90;99.90
19138;DHT22;68178;52.188;5.598;2023-08-31T14:15:59;22.90;99.90
19138;DHT22;68178;52.188;5.598;2023-08-31T14:18:26;22.80;99.90
19138;DHT22;68178;52.188;5.598;2023-08-31T14:20:54;22.90;99.90
19138;DHT22;68178;52.188;5.598;2023-08-31T14:23:20;22.90;99.90
19138;DHT22;68178;52.188;5.598;2023-08-31T14:25:45;23.00;99.90
19138;DHT22;68178;52.188;5.598;2023-08-31T14:28:11;23.00;99.90
19138;DHT22;68178;52.188;5.598;2023-08-31T14:30:37;23.10;99.90
19138;DHT22;68178;52.188;5.598;2023-08-31T14:33:04;23.40;99.90
19138;DHT22;68178;52.188;5.598;2023-08-31T14:35:29;23.60;99.90
19138;DHT22;68178;52.188;5.598;2023-08-31T14:37:56;23.40;99.90
19138;DHT22;68178;52.188;5.598;2023-08-31T14:40:21;23.10;99.90
19138;DHT22;68178;52.188;5.598;2023-08-31T14:42:47;23.30;99.90
19138;DHT22;68178;52.188;5.598;2023-08-31T14:45:12;23.20;99.90
19138;DHT22;68178;52.188;5.598;2023-08-31T14:47:38;22.90;99.90
19138;DHT22;68178;52.188;5.598;2023-08-31T14:50:04;22.30;99.90
19138;DHT22;68178;52.188;5.598;2023-08-31T14:52:30;21.80;99.90
19138;DHT22;68178;52.188;5.598;2023-08-31T14:54:56;21.50;99.90
19138;DHT22;68178;52.188;5.598;2023-08-31T14:57:21;21.40;99.90
19138;DHT22;68178;52.188;5.598;2023-08-31T14:59:47;21.40;99.90
19138;DHT22;68178;52.188;5.598;2023-08-31T15:02:12;21.20;99.90
19138;DHT22;68178;52.188;5.598;2023-08-31T15:04:40;21.30;99.90
19138;DHT22;68178;52.188;5.598;2023-08-31T15:07:05;21.20;99.90
19138;DHT22;68178;52.188;5.598;2023-08-31T15:09:31;21.10;99.90
19138;DHT22;68178;52.188;5.598;2023-08-31T15:11:57;21.30;99.90
19138;DHT22;68178;52.188;5.598;2023-08-31T15:14:23;21.10;99.90
19138;DHT22;68178;52.188;5.598;2023-08-31T15:16:48;20.90;99.90
19138;DHT22;68178;52.188;5.598;2023-08-31T15:19:14;20.70;99.90
19138;DHT22;68178;52.188;5.598;2023-08-31T15:21:39;20.80;99.90
19138;DHT22;68178;52.188;5.598;2023-08-31T15:24:05;20.80;99.90
19138;DHT22;68178;52.188;5.598;2023-08-31T15:26:31;20.80;99.90
19138;DHT22;68178;52.188;5.598;2023-08-31T15:28:56;20.70;99.90
19138;DHT22;68178;52.188;5.598;2023-08-31T15:31:25;20.50;99.90
19138;DHT22;68178;52.188;5.598;2023-08-31T15:33:50;20.60;99.90
19138;DHT22;68178;52.188;5.598;2023-08-31T15:36:16;20.80;99.90
19138;DHT22;68178;52.188;5.598;2023-08-31T15:38:42;20.80;99.90